Nordic Moon — V7DU7 — position and weather

sailwx.info

Track history (hours):
 
Tides and Currents Weather Stations Pressure Air Temp Water Temp Dewpoint Dewpoint Depression Visibility Wind Speed Wind Dir Waves Ship Positions

Nordic Moon

Last reported at 2018-Apr-29 17:37 UTC. Time now 2018-May-22 07:52 UTC.
Position S 30°25' E 030°58'.
Warning: this ship's position is 22 days out of date.

Length 272 m; draft 9 m.

Type: Tanker. MMSI: 538001711.

Date/timePositionNaut miles runAvg speedWind from/ knotsBaromVisibWave heightAir tempDewpointWater temp
2018-Apr-29 17:37S 30°25' E 030°58'111.2
2018-Apr-29 17:30S 30°24' E 030°58'510.7
2018-Apr-29 17:00S 30°19' E 030°59'510.8
2018-Apr-29 16:30S 30°13' E 030°59'510.7
2018-Apr-29 16:00S 30°08' E 030°60'510.3
2018-Apr-29 15:30S 30°03' E 031°00'1 1.9
2018-Apr-29 15:01S 30°02' E 030°59'1 1.6
2018-Apr-29 14:30S 30°03' E 030°59'2 3.4
2018-Apr-29 14:00S 30°01' E 030°58'0 0.7
2018-Apr-29 13:27S 30°01' E 030°58'0 0.0
2018-Apr-29 12:51S 30°01' E 030°58'0 0.0
2018-Apr-28 09:42S 30°01' E 030°59'0 0.1
2018-Apr-28 09:30S 30°01' E 030°59'0 0.0
2018-Apr-28 09:00S 30°01' E 030°59'0 0.1
2018-Apr-28 08:29S 30°01' E 030°59'0 0.1
2018-Apr-28 08:00S 30°01' E 030°59'0 0.2
2018-Apr-28 07:30S 30°01' E 030°58'0 0.0
2018-Apr-28 07:00S 30°01' E 030°58'0 0.2
2018-Apr-28 06:30S 30°01' E 030°58'1 1.0
2018-Apr-28 06:00S 30°01' E 030°59'1 2.8
2018-Apr-28 05:30S 30°01' E 031°00'1 1.1
2018-Apr-28 05:00S 30°01' E 031°01'0 0.5
2018-Apr-28 04:30S 30°01' E 031°01'2 3.5
2018-Apr-28 04:00S 29°60' E 031°03'2 4.1
2018-Apr-28 03:30S 29°58' E 031°05'3 6.3
2018-Apr-28 03:00S 29°57' E 031°08'3 6.5
2018-Apr-28 02:30S 29°54' E 031°10'4 8.3
2018-Apr-28 02:00S 29°50' E 031°11'3 6.8
2018-Apr-28 01:30S 29°47' E 031°13'0 0.5
2018-Apr-28 01:00S 29°46' E 031°12'0 0.1
2018-Apr-28 00:30S 29°46' E 031°12'0 0.1
2018-Apr-28 00:00S 29°46' E 031°12'0 0.0
2018-Apr-27 23:30S 29°46' E 031°12'0 0.0
2018-Apr-27 23:00S 29°46' E 031°12'0 0.1
2018-Apr-27 22:30S 29°46' E 031°12'0 0.0
2018-Apr-27 22:00S 29°46' E 031°12'0 0.0
2018-Apr-27 21:30S 29°46' E 031°12'0 0.1
2018-Apr-27 21:00S 29°46' E 031°12'0 0.0
2018-Apr-27 20:30S 29°46' E 031°12'0 0.2
2018-Apr-27 20:00S 29°46' E 031°13'0 0.1
2018-Apr-27 19:30S 29°46' E 031°13'0 0.0
2018-Apr-27 19:00S 29°46' E 031°13'0 0.1
2018-Apr-27 18:30S 29°47' E 031°13'0 0.0
2018-Apr-27 18:00S 29°47' E 031°13'0 0.0
2018-Apr-27 17:30S 29°47' E 031°13'0 0.0
2018-Apr-27 17:00S 29°47' E 031°13'0 0.1
2018-Apr-27 16:30S 29°47' E 031°13'0 0.0
2018-Apr-27 16:00S 29°47' E 031°13'0 0.0
2018-Apr-27 15:30S 29°47' E 031°13'0 0.1
2018-Apr-27 15:00S 29°47' E 031°13'0 0.1
2018-Apr-27 14:30S 29°46' E 031°13'0 0.0
2018-Apr-27 14:00S 29°46' E 031°13'0 0.0
2018-Apr-27 13:30S 29°46' E 031°13'0 0.1
2018-Apr-27 13:00S 29°46' E 031°13'0 0.1
2018-Apr-27 12:30S 29°46' E 031°13'0 0.1
2018-Apr-27 12:00S 29°46' E 031°12'0 0.0
2018-Apr-27 11:30S 29°46' E 031°12'0 0.0
2018-Apr-27 11:00S 29°46' E 031°12'0 0.1
2018-Apr-27 10:30S 29°46' E 031°12'0 0.0
2018-Apr-27 10:00S 29°46' E 031°12'0 0.0
2018-Apr-27 09:30S 29°46' E 031°12'0 0.1
2018-Apr-27 09:00S 29°46' E 031°12'0 0.0
2018-Apr-27 08:30S 29°46' E 031°12'0 0.0
2018-Apr-27 08:00S 29°46' E 031°12'0 0.0
2018-Apr-27 07:30S 29°46' E 031°12'0 0.0
2018-Apr-27 07:00S 29°46' E 031°12'0 0.0
2018-Apr-27 06:30S 29°46' E 031°12'0 0.2
2018-Apr-27 06:00S 29°46' E 031°12'0 0.1
2018-Apr-27 05:30S 29°46' E 031°12'0 0.1
2018-Apr-27 05:00S 29°46' E 031°12'0 0.0
2018-Apr-27 04:30S 29°46' E 031°12'0 0.0
2018-Apr-27 04:00S 29°46' E 031°12'0 0.1
2018-Apr-27 03:30S 29°46' E 031°12'0 0.1
2018-Apr-27 03:00S 29°46' E 031°12'0 0.0
2018-Apr-27 02:30S 29°46' E 031°13'0 0.0
2018-Apr-27 02:00S 29°46' E 031°12'0 0.0
2018-Apr-27 01:30S 29°46' E 031°12'0 0.0
2018-Apr-27 01:00S 29°46' E 031°12'0 0.0
2018-Apr-27 00:30S 29°46' E 031°12'0 0.0
2018-Apr-27 00:00S 29°46' E 031°12'0 0.0
2018-Apr-26 23:30S 29°46' E 031°12'0 0.0
2018-Apr-26 23:00S 29°46' E 031°13'0 0.0
2018-Apr-26 22:30S 29°46' E 031°13'0 0.0
2018-Apr-26 22:00S 29°46' E 031°13'0 0.0
2018-Apr-26 21:30S 29°46' E 031°13'0 0.0
2018-Apr-26 21:00S 29°46' E 031°12'0 0.0
2018-Apr-26 20:30S 29°46' E 031°12'0 0.0
2018-Apr-26 20:00S 29°46' E 031°13'0 0.0
2018-Apr-26 19:30S 29°46' E 031°12'0 0.0
2018-Apr-26 19:00S 29°46' E 031°12'0 0.0
2018-Apr-26 18:30S 29°46' E 031°12'0 0.1
2018-Apr-26 18:00S 29°46' E 031°12'0 0.0
2018-Apr-26 17:30S 29°46' E 031°12'0 0.0
2018-Apr-26 17:00S 29°46' E 031°12'0 0.1
2018-Apr-26 16:30S 29°46' E 031°12'0 0.0
2018-Apr-26 16:00S 29°47' E 031°12'0 0.1
2018-Apr-26 15:30S 29°47' E 031°12'0 0.1
2018-Apr-26 15:00S 29°47' E 031°12'0 0.1
2018-Apr-26 14:30S 29°47' E 031°12'0 0.0
2018-Apr-26 14:00S 29°47' E 031°12'0 0.0
2018-Apr-26 13:24S 29°47' E 031°12'0 0.1
2018-Apr-26 13:00S 29°47' E 031°12'0 0.1
2018-Apr-26 12:30S 29°47' E 031°12'0 0.0
2018-Apr-26 12:00S 29°47' E 031°12'0 0.1
2018-Apr-26 11:30S 29°47' E 031°12'0 0.1
2018-Apr-26 11:00S 29°47' E 031°12'0 0.0
2018-Apr-26 10:30S 29°46' E 031°12'0 0.1
2018-Apr-26 10:00S 29°46' E 031°12'0 0.1
2018-Apr-26 09:30S 29°47' E 031°12'0 0.1
2018-Apr-26 09:00S 29°46' E 031°12'0 0.1
2018-Apr-26 08:30S 29°46' E 031°12'0 0.0
2018-Apr-26 08:00S 29°46' E 031°12'0 0.0
2018-Apr-26 07:30S 29°46' E 031°12'0 0.0
2018-Apr-26 07:00S 29°46' E 031°12'0 0.0
2018-Apr-26 06:30S 29°46' E 031°12'0 0.0
2018-Apr-26 06:00S 29°46' E 031°12'0 0.1
2018-Apr-26 05:30S 29°46' E 031°12'0 0.1
2018-Apr-26 05:00S 29°46' E 031°12'0 0.0
2018-Apr-26 04:30S 29°46' E 031°12'0 0.0
2018-Apr-26 04:00S 29°46' E 031°12'0 0.1
2018-Apr-26 03:30S 29°46' E 031°12'0 0.2
2018-Apr-26 03:00S 29°46' E 031°12'0 0.3
2018-Apr-26 02:30S 29°47' E 031°13'0 0.1
2018-Apr-26 02:00S 29°47' E 031°13'0 0.1
2018-Apr-26 01:30S 29°47' E 031°13'0 0.1
2018-Apr-26 01:00S 29°47' E 031°13'0 0.1
2018-Apr-26 00:30S 29°47' E 031°13'0 0.1
2018-Apr-26 00:00S 29°47' E 031°12'0 0.2
2018-Apr-25 23:30S 29°47' E 031°12'0 0.2
2018-Apr-25 23:00S 29°47' E 031°12'0 0.0
2018-Apr-25 22:30S 29°47' E 031°12'0 0.1
2018-Apr-25 22:00S 29°47' E 031°12'0 0.1
2018-Apr-25 21:30S 29°47' E 031°12'0 0.0
2018-Apr-25 21:00S 29°47' E 031°12'0 0.1
2018-Apr-25 20:30S 29°47' E 031°12'0 0.0
2018-Apr-25 20:00S 29°47' E 031°12'0 0.1
2018-Apr-25 19:30S 29°46' E 031°12'0 0.1
2018-Apr-25 19:00S 29°46' E 031°12'0 0.0
2018-Apr-25 18:30S 29°46' E 031°12'0 0.4
2018-Apr-25 18:00S 29°47' E 031°12'3 5.9
2018-Apr-25 17:30S 29°50' E 031°12'612.5
2018-Apr-25 17:00S 29°56' E 031°12'713.4
2018-Apr-25 16:30S 30°02' E 031°11'713.0
2018-Apr-25 16:00S 30°09' E 031°10'612.1
2018-Apr-25 15:30S 30°15' E 031°08'612.1
2018-Apr-25 15:00S 30°21' E 031°07'612.4
2018-Apr-25 14:30S 30°27' E 031°05'612.4
2018-Apr-25 14:00S 30°33' E 031°03'612.4
2018-Apr-25 13:30S 30°39' E 031°02'612.5
2018-Apr-25 13:00S 30°45' E 031°00'612.6
2018-Apr-25 12:30S 30°51' E 030°58'612.6
2018-Apr-25 12:00S 30°57' E 030°56'712.3
2018-Apr-25 11:28S 31°02' E 030°51'1812.4
2018-Apr-25 10:01S 31°17' E 030°39'012.4
2018-Apr-25 10:00S 31°17' E 030°39'1212.1
2018-Apr-25 09:01S 31°27' E 030°31'  
Track history (hours):
 
Tides and Currents Weather Stations Pressure Air Temp Water Temp Dewpoint Dewpoint Depression Visibility Wind Speed Wind Dir Waves Ship Positions

Nordic Moon

Last reported at 2018-Apr-29 17:37 UTC. Time now 2018-May-22 07:52 UTC.
Position S 30°25' E 030°58'.
Warning: this ship's position is 22 days out of date.

Length 272 m; draft 9 m.

Type: Tanker. MMSI: 538001711.

Date/timePositionNaut miles runAvg speedWind from/ knotsBaromVisibWave heightAir tempDewpointWater temp
2018-Apr-29 17:37S 30°25' E 030°58'111.2
2018-Apr-29 17:30S 30°24' E 030°58'510.7
2018-Apr-29 17:00S 30°19' E 030°59'510.8
2018-Apr-29 16:30S 30°13' E 030°59'510.7
2018-Apr-29 16:00S 30°08' E 030°60'510.3
2018-Apr-29 15:30S 30°03' E 031°00'1 1.9
2018-Apr-29 15:01S 30°02' E 030°59'1 1.6
2018-Apr-29 14:30S 30°03' E 030°59'2 3.4
2018-Apr-29 14:00S 30°01' E 030°58'0 0.7
2018-Apr-29 13:27S 30°01' E 030°58'0 0.0
2018-Apr-29 12:51S 30°01' E 030°58'0 0.0
2018-Apr-28 09:42S 30°01' E 030°59'0 0.1
2018-Apr-28 09:30S 30°01' E 030°59'0 0.0
2018-Apr-28 09:00S 30°01' E 030°59'0 0.1
2018-Apr-28 08:29S 30°01' E 030°59'0 0.1
2018-Apr-28 08:00S 30°01' E 030°59'0 0.2
2018-Apr-28 07:30S 30°01' E 030°58'0 0.0
2018-Apr-28 07:00S 30°01' E 030°58'0 0.2
2018-Apr-28 06:30S 30°01' E 030°58'1 1.0
2018-Apr-28 06:00S 30°01' E 030°59'1 2.8
2018-Apr-28 05:30S 30°01' E 031°00'1 1.1
2018-Apr-28 05:00S 30°01' E 031°01'0 0.5
2018-Apr-28 04:30S 30°01' E 031°01'2 3.5
2018-Apr-28 04:00S 29°60' E 031°03'2 4.1
2018-Apr-28 03:30S 29°58' E 031°05'3 6.3
2018-Apr-28 03:00S 29°57' E 031°08'3 6.5
2018-Apr-28 02:30S 29°54' E 031°10'4 8.3
2018-Apr-28 02:00S 29°50' E 031°11'3 6.8
2018-Apr-28 01:30S 29°47' E 031°13'0 0.5
2018-Apr-28 01:00S 29°46' E 031°12'0 0.1
2018-Apr-28 00:30S 29°46' E 031°12'0 0.1
2018-Apr-28 00:00S 29°46' E 031°12'0 0.0
2018-Apr-27 23:30S 29°46' E 031°12'0 0.0
2018-Apr-27 23:00S 29°46' E 031°12'0 0.1
2018-Apr-27 22:30S 29°46' E 031°12'0 0.0
2018-Apr-27 22:00S 29°46' E 031°12'0 0.0
2018-Apr-27 21:30S 29°46' E 031°12'0 0.1
2018-Apr-27 21:00S 29°46' E 031°12'0 0.0
2018-Apr-27 20:30S 29°46' E 031°12'0 0.2
2018-Apr-27 20:00S 29°46' E 031°13'0 0.1
2018-Apr-27 19:30S 29°46' E 031°13'0 0.0
2018-Apr-27 19:00S 29°46' E 031°13'0 0.1
2018-Apr-27 18:30S 29°47' E 031°13'0 0.0
2018-Apr-27 18:00S 29°47' E 031°13'0 0.0
2018-Apr-27 17:30S 29°47' E 031°13'0 0.0
2018-Apr-27 17:00S 29°47' E 031°13'0 0.1
2018-Apr-27 16:30S 29°47' E 031°13'0 0.0
2018-Apr-27 16:00S 29°47' E 031°13'0 0.0
2018-Apr-27 15:30S 29°47' E 031°13'0 0.1
2018-Apr-27 15:00S 29°47' E 031°13'0 0.1
2018-Apr-27 14:30S 29°46' E 031°13'0 0.0
2018-Apr-27 14:00S 29°46' E 031°13'0 0.0
2018-Apr-27 13:30S 29°46' E 031°13'0 0.1
2018-Apr-27 13:00S 29°46' E 031°13'0 0.1
2018-Apr-27 12:30S 29°46' E 031°13'0 0.1
2018-Apr-27 12:00S 29°46' E 031°12'0 0.0
2018-Apr-27 11:30S 29°46' E 031°12'0 0.0
2018-Apr-27 11:00S 29°46' E 031°12'0 0.1
2018-Apr-27 10:30S 29°46' E 031°12'0 0.0
2018-Apr-27 10:00S 29°46' E 031°12'0 0.0
2018-Apr-27 09:30S 29°46' E 031°12'0 0.1
2018-Apr-27 09:00S 29°46' E 031°12'0 0.0
2018-Apr-27 08:30S 29°46' E 031°12'0 0.0
2018-Apr-27 08:00S 29°46' E 031°12'0 0.0
2018-Apr-27 07:30S 29°46' E 031°12'0 0.0
2018-Apr-27 07:00S 29°46' E 031°12'0 0.0
2018-Apr-27 06:30S 29°46' E 031°12'0 0.2
2018-Apr-27 06:00S 29°46' E 031°12'0 0.1
2018-Apr-27 05:30S 29°46' E 031°12'0 0.1
2018-Apr-27 05:00S 29°46' E 031°12'0 0.0
2018-Apr-27 04:30S 29°46' E 031°12'0 0.0
2018-Apr-27 04:00S 29°46' E 031°12'0 0.1
2018-Apr-27 03:30S 29°46' E 031°12'0 0.1
2018-Apr-27 03:00S 29°46' E 031°12'0 0.0
2018-Apr-27 02:30S 29°46' E 031°13'0 0.0
2018-Apr-27 02:00S 29°46' E 031°12'0 0.0
2018-Apr-27 01:30S 29°46' E 031°12'0 0.0
2018-Apr-27 01:00S 29°46' E 031°12'0 0.0
2018-Apr-27 00:30S 29°46' E 031°12'0 0.0
2018-Apr-27 00:00S 29°46' E 031°12'0 0.0
2018-Apr-26 23:30S 29°46' E 031°12'0 0.0
2018-Apr-26 23:00S 29°46' E 031°13'0 0.0
2018-Apr-26 22:30S 29°46' E 031°13'0 0.0
2018-Apr-26 22:00S 29°46' E 031°13'0 0.0
2018-Apr-26 21:30S 29°46' E 031°13'0 0.0
2018-Apr-26 21:00S 29°46' E 031°12'0 0.0
2018-Apr-26 20:30S 29°46' E 031°12'0 0.0
2018-Apr-26 20:00S 29°46' E 031°13'0 0.0
2018-Apr-26 19:30S 29°46' E 031°12'0 0.0
2018-Apr-26 19:00S 29°46' E 031°12'0 0.0
2018-Apr-26 18:30S 29°46' E 031°12'0 0.1
2018-Apr-26 18:00S 29°46' E 031°12'0 0.0
2018-Apr-26 17:30S 29°46' E 031°12'0 0.0
2018-Apr-26 17:00S 29°46' E 031°12'0 0.1
2018-Apr-26 16:30S 29°46' E 031°12'0 0.0
2018-Apr-26 16:00S 29°47' E 031°12'0 0.1
2018-Apr-26 15:30S 29°47' E 031°12'0 0.1
2018-Apr-26 15:00S 29°47' E 031°12'0 0.1
2018-Apr-26 14:30S 29°47' E 031°12'0 0.0
2018-Apr-26 14:00S 29°47' E 031°12'0 0.0
2018-Apr-26 13:24S 29°47' E 031°12'0 0.1
2018-Apr-26 13:00S 29°47' E 031°12'0 0.1
2018-Apr-26 12:30S 29°47' E 031°12'0 0.0
2018-Apr-26 12:00S 29°47' E 031°12'0 0.1
2018-Apr-26 11:30S 29°47' E 031°12'0 0.1
2018-Apr-26 11:00S 29°47' E 031°12'0 0.0
2018-Apr-26 10:30S 29°46' E 031°12'0 0.1
2018-Apr-26 10:00S 29°46' E 031°12'0 0.1
2018-Apr-26 09:30S 29°47' E 031°12'0 0.1
2018-Apr-26 09:00S 29°46' E 031°12'0 0.1
2018-Apr-26 08:30S 29°46' E 031°12'0 0.0
2018-Apr-26 08:00S 29°46' E 031°12'0 0.0
2018-Apr-26 07:30S 29°46' E 031°12'0 0.0
2018-Apr-26 07:00S 29°46' E 031°12'0 0.0
2018-Apr-26 06:30S 29°46' E 031°12'0 0.0
2018-Apr-26 06:00S 29°46' E 031°12'0 0.1
2018-Apr-26 05:30S 29°46' E 031°12'0 0.1
2018-Apr-26 05:00S 29°46' E 031°12'0 0.0
2018-Apr-26 04:30S 29°46' E 031°12'0 0.0
2018-Apr-26 04:00S 29°46' E 031°12'0 0.1
2018-Apr-26 03:30S 29°46' E 031°12'0 0.2
2018-Apr-26 03:00S 29°46' E 031°12'0 0.3
2018-Apr-26 02:30S 29°47' E 031°13'0 0.1
2018-Apr-26 02:00S 29°47' E 031°13'0 0.1
2018-Apr-26 01:30S 29°47' E 031°13'0 0.1
2018-Apr-26 01:00S 29°47' E 031°13'0 0.1
2018-Apr-26 00:30S 29°47' E 031°13'0 0.1
2018-Apr-26 00:00S 29°47' E 031°12'0 0.2
2018-Apr-25 23:30S 29°47' E 031°12'0 0.2
2018-Apr-25 23:00S 29°47' E 031°12'0 0.0
2018-Apr-25 22:30S 29°47' E 031°12'0 0.1
2018-Apr-25 22:00S 29°47' E 031°12'0 0.1
2018-Apr-25 21:30S 29°47' E 031°12'0 0.0
2018-Apr-25 21:00S 29°47' E 031°12'0 0.1
2018-Apr-25 20:30S 29°47' E 031°12'0 0.0
2018-Apr-25 20:00S 29°47' E 031°12'0 0.1
2018-Apr-25 19:30S 29°46' E 031°12'0 0.1
2018-Apr-25 19:00S 29°46' E 031°12'0 0.0
2018-Apr-25 18:30S 29°46' E 031°12'0 0.4
2018-Apr-25 18:00S 29°47' E 031°12'3 5.9
2018-Apr-25 17:30S 29°50' E 031°12'612.5
2018-Apr-25 17:00S 29°56' E 031°12'713.4
2018-Apr-25 16:30S 30°02' E 031°11'713.0
2018-Apr-25 16:00S 30°09' E 031°10'612.1
2018-Apr-25 15:30S 30°15' E 031°08'612.1
2018-Apr-25 15:00S 30°21' E 031°07'612.4
2018-Apr-25 14:30S 30°27' E 031°05'612.4
2018-Apr-25 14:00S 30°33' E 031°03'612.4
2018-Apr-25 13:30S 30°39' E 031°02'612.5
2018-Apr-25 13:00S 30°45' E 031°00'612.6
2018-Apr-25 12:30S 30°51' E 030°58'612.6
2018-Apr-25 12:00S 30°57' E 030°56'712.3
2018-Apr-25 11:28S 31°02' E 030°51'1812.4
2018-Apr-25 10:01S 31°17' E 030°39'012.4
2018-Apr-25 10:00S 31°17' E 030°39'1212.1
2018-Apr-25 09:01S 31°27' E 030°31'  

Dump ship's entire track history